createdAt,value
2017-07-24T00:01:10.806Z,9.63
2017-07-24T00:03:39.782Z,11.83
2017-07-24T00:06:09.547Z,8.70
2017-07-24T00:08:38.517Z,9.00
2017-07-24T00:11:07.475Z,14.10
2017-07-24T00:13:36.545Z,9.07
2017-07-24T00:16:05.496Z,9.30
2017-07-24T00:18:34.633Z,9.70
2017-07-24T00:21:03.577Z,9.33
2017-07-24T00:23:32.506Z,8.93
2017-07-24T00:26:01.474Z,7.60
2017-07-24T00:28:30.526Z,8.17
2017-07-24T00:31:00.252Z,8.60
2017-07-24T00:33:29.253Z,8.60
2017-07-24T00:35:58.183Z,10.23
2017-07-24T00:38:28.265Z,8.60
2017-07-24T00:40:57.217Z,8.10
2017-07-24T00:43:26.176Z,8.87
2017-07-24T00:45:55.156Z,8.00
2017-07-24T00:48:24.180Z,8.87
2017-07-24T00:50:54.803Z,10.40
2017-07-24T00:53:23.824Z,8.87
2017-07-24T00:55:52.895Z,8.73
2017-07-24T00:58:21.878Z,9.57
2017-07-24T01:00:51.116Z,8.97
2017-07-24T01:03:20.862Z,8.70
2017-07-24T01:05:49.837Z,8.13
2017-07-24T01:08:18.854Z,9.57
2017-07-24T01:10:47.796Z,11.33
2017-07-24T01:13:17.534Z,8.30
2017-07-24T01:15:46.497Z,8.87
2017-07-24T01:18:15.481Z,7.77
2017-07-24T01:20:44.429Z,8.20
2017-07-24T01:23:13.393Z,9.27
2017-07-24T01:25:42.340Z,9.17
2017-07-24T01:28:11.461Z,9.20
2017-07-24T01:30:40.465Z,8.70
2017-07-24T01:33:09.460Z,8.13
2017-07-24T01:35:39.257Z,8.90
2017-07-24T01:38:08.276Z,8.60
2017-07-24T01:40:37.211Z,8.33
2017-07-24T01:43:06.213Z,9.37
2017-07-24T01:45:35.152Z,9.17
2017-07-24T01:48:04.123Z,8.77
2017-07-24T01:50:33.851Z,9.10
2017-07-24T01:53:02.819Z,8.43
2017-07-24T01:55:32.541Z,8.47
2017-07-24T01:58:01.618Z,9.17
2017-07-24T02:00:30.540Z,9.50
2017-07-24T02:02:59.526Z,10.67
2017-07-24T02:05:28.557Z,8.70
2017-07-24T02:07:57.565Z,8.53
2017-07-24T02:10:26.524Z,8.20
2017-07-24T02:12:55.494Z,11.30
2017-07-24T02:15:24.478Z,9.20
2017-07-24T02:17:54.209Z,9.10
2017-07-24T02:20:23.167Z,9.97
2017-07-24T02:22:52.145Z,8.90
2017-07-24T02:25:21.166Z,9.27
2017-07-24T02:27:50.120Z,9.53
2017-07-24T02:30:19.406Z,8.97
2017-07-24T02:32:48.390Z,9.53
2017-07-24T02:35:17.367Z,9.10
2017-07-24T02:37:46.320Z,9.57
2017-07-24T02:40:15.307Z,9.10
2017-07-24T02:42:45.021Z,9.53
2017-07-24T02:45:14.768Z,10.17
2017-07-24T02:47:43.721Z,8.70
2017-07-24T02:50:12.674Z,9.60
2017-07-24T02:52:41.660Z,9.93
2017-07-24T02:55:10.619Z,10.50
2017-07-24T02:57:39.570Z,9.33
2017-07-24T03:00:08.527Z,9.53
2017-07-24T03:02:37.487Z,10.77
2017-07-24T03:05:06.481Z,15.03
2017-07-24T03:07:35.431Z,9.77
2017-07-24T03:10:04.390Z,13.03
2017-07-24T03:12:33.357Z,10.73
2017-07-24T03:15:02.301Z,10.37
2017-07-24T03:17:31.269Z,11.20
2017-07-24T03:20:00.224Z,9.67
2017-07-24T03:22:29.197Z,10.33
2017-07-24T03:24:58.141Z,12.90
2017-07-24T03:27:27.123Z,8.40
2017-07-24T03:29:56.083Z,10.13
2017-07-24T03:32:25.829Z,10.80
2017-07-24T03:34:54.906Z,10.93
2017-07-24T03:37:23.929Z,11.30
2017-07-24T03:39:52.900Z,10.77
2017-07-24T03:42:21.963Z,10.23
2017-07-24T03:44:51.714Z,10.77
2017-07-24T03:47:20.696Z,10.00
2017-07-24T03:49:49.673Z,9.70
2017-07-24T03:52:18.637Z,9.60
2017-07-24T03:54:47.584Z,10.30
2017-07-24T03:57:16.611Z,11.83
2017-07-24T03:59:45.579Z,10.67
2017-07-24T04:02:14.560Z,12.50
2017-07-24T04:04:43.519Z,10.00
2017-07-24T04:07:13.264Z,10.37
2017-07-24T04:09:42.237Z,10.63
2017-07-24T04:12:11.209Z,11.20
2017-07-24T04:14:40.184Z,11.20
2017-07-24T04:17:09.940Z,11.90
2017-07-24T04:19:38.908Z,10.07
2017-07-24T04:22:07.909Z,13.73
2017-07-24T04:24:36.858Z,11.23
2017-07-24T04:27:05.833Z,10.17
2017-07-24T04:29:34.810Z,10.47
2017-07-24T04:32:03.782Z,12.50
2017-07-24T04:34:32.759Z,10.03
2017-07-24T04:37:01.717Z,12.10
2017-07-24T04:39:30.687Z,10.40
2017-07-24T04:41:59.646Z,12.53
2017-07-24T04:44:28.649Z,13.90
2017-07-24T04:46:57.668Z,12.80
2017-07-24T04:49:26.649Z,13.23
2017-07-24T04:51:55.634Z,15.40
2017-07-24T04:54:24.643Z,14.47
2017-07-24T04:56:53.658Z,14.57
2017-07-24T04:59:22.612Z,13.33
2017-07-24T05:01:51.601Z,14.17
2017-07-24T05:04:20.607Z,14.13
2017-07-24T05:06:49.645Z,13.13
2017-07-24T05:09:19.382Z,13.63
2017-07-24T05:11:48.348Z,17.37
2017-07-24T05:14:18.146Z,15.27
2017-07-24T05:16:47.860Z,17.63
2017-07-24T05:19:17.610Z,15.90
2017-07-24T05:21:46.608Z,17.17
2017-07-24T05:24:15.663Z,15.63
2017-07-24T05:26:45.390Z,67.73
2017-07-24T05:29:14.380Z,22.60
2017-07-24T05:31:43.359Z,27.83
2017-07-24T05:34:13.225Z,18.37
2017-07-24T05:36:42.176Z,16.87
2017-07-24T05:39:11.175Z,15.70
2017-07-24T05:41:40.168Z,15.63
2017-07-24T05:44:09.153Z,13.60
2017-07-24T05:46:38.114Z,19.07
2017-07-24T05:49:07.105Z,13.33
2017-07-24T05:51:36.102Z,16.63
2017-07-24T05:54:05.057Z,15.37
2017-07-24T05:56:34.043Z,16.53
2017-07-24T05:59:03.026Z,15.10
2017-07-24T06:01:32.104Z,14.20
2017-07-24T06:04:01.093Z,16.07
2017-07-24T06:06:30.071Z,23.10
2017-07-24T06:08:59.858Z,15.93
2017-07-24T06:11:28.874Z,16.10
2017-07-24T06:13:58.611Z,15.87
2017-07-24T06:16:27.570Z,13.93
2017-07-24T06:18:57.377Z,14.30
2017-07-24T06:21:26.354Z,15.60
2017-07-24T06:23:55.349Z,15.10
2017-07-24T06:26:24.308Z,15.03
2017-07-24T06:28:53.287Z,15.90
2017-07-24T06:31:22.244Z,15.03
2017-07-24T06:33:51.998Z,16.80
2017-07-24T06:36:20.992Z,15.57
2017-07-24T06:38:49.965Z,16.00
2017-07-24T06:41:18.925Z,16.17
2017-07-24T06:43:48.672Z,17.03
2017-07-24T06:46:17.635Z,14.57
2017-07-24T06:48:47.387Z,14.50
2017-07-24T06:51:16.437Z,14.83
2017-07-24T06:53:45.459Z,14.10
2017-07-24T06:56:14.572Z,13.97
2017-07-24T06:58:43.583Z,16.40
2017-07-24T07:01:12.694Z,18.17
2017-07-24T07:03:41.659Z,15.83
2017-07-24T07:06:10.653Z,17.40
2017-07-24T07:08:39.633Z,14.70
2017-07-24T07:11:08.684Z,15.63
2017-07-24T07:13:37.632Z,18.00
2017-07-24T07:16:06.628Z,16.90
2017-07-24T07:18:35.659Z,14.93
2017-07-24T07:21:04.885Z,17.30
2017-07-24T07:23:33.883Z,16.67
2017-07-24T07:26:02.851Z,15.50
2017-07-24T07:28:31.828Z,13.57
2017-07-24T07:31:01.703Z,15.23
2017-07-24T07:33:30.666Z,14.63
2017-07-24T07:35:59.626Z,13.80
2017-07-24T07:38:29.551Z,15.67
2017-07-24T07:40:59.374Z,13.40
2017-07-24T07:43:28.319Z,12.80
2017-07-24T07:45:57.344Z,14.97
2017-07-24T07:48:26.327Z,15.73
2017-07-24T07:50:56.145Z,14.87
2017-07-24T07:53:25.096Z,14.63
2017-07-24T07:55:56.934Z,15.23
2017-07-24T07:58:25.901Z,13.70
2017-07-24T08:00:54.871Z,12.67
2017-07-24T08:03:24.691Z,13.33
2017-07-24T08:06:00.716Z,15.00
2017-07-24T08:08:29.462Z,15.30
2017-07-24T08:10:58.441Z,14.67
2017-07-24T08:13:27.421Z,17.77
2017-07-24T08:15:57.199Z,19.07
2017-07-24T08:18:26.545Z,15.67
2017-07-24T08:20:55.516Z,16.50
2017-07-24T08:23:25.231Z,18.37
2017-07-24T08:25:54.245Z,15.83
2017-07-24T08:28:23.301Z,17.87
2017-07-24T08:30:52.285Z,16.73
2017-07-24T08:33:21.250Z,19.07
2017-07-24T08:35:50.435Z,20.17
2017-07-24T08:38:19.414Z,14.57
2017-07-24T08:40:48.396Z,13.73
2017-07-24T08:43:17.365Z,16.03
2017-07-24T08:45:46.382Z,16.30
2017-07-24T08:48:15.365Z,17.50
2017-07-24T08:50:45.126Z,17.27
2017-07-24T08:53:14.078Z,15.97
2017-07-24T08:55:43.061Z,20.40
2017-07-24T08:58:12.012Z,20.47
2017-07-24T09:00:41.005Z,21.07
2017-07-24T09:03:10.015Z,21.20
2017-07-24T09:05:38.963Z,20.97
2017-07-24T09:08:07.946Z,17.07
2017-07-24T09:10:36.922Z,18.07
2017-07-24T09:13:05.933Z,18.00
2017-07-24T09:15:34.918Z,16.40
2017-07-24T09:18:03.906Z,12.00
2017-07-24T09:20:32.892Z,14.70
2017-07-24T09:23:01.888Z,15.47
2017-07-24T09:25:30.868Z,15.83
2017-07-24T09:28:00.662Z,15.30
2017-07-24T09:30:30.397Z,15.33
2017-07-24T09:32:59.390Z,13.67
2017-07-24T09:35:28.363Z,14.13
2017-07-24T09:37:58.120Z,15.67
2017-07-24T09:40:27.076Z,16.77
2017-07-24T09:42:56.079Z,16.40
2017-07-24T09:45:25.122Z,14.23
2017-07-24T09:47:54.966Z,14.27
2017-07-24T09:50:23.944Z,17.00
2017-07-24T09:52:52.916Z,18.60
2017-07-24T09:55:21.886Z,19.10
2017-07-24T09:57:50.859Z,16.43
2017-07-24T10:00:19.808Z,14.53
2017-07-24T10:02:48.814Z,16.50
2017-07-24T10:05:18.554Z,14.77
2017-07-24T10:07:47.538Z,15.70
2017-07-24T10:10:16.513Z,20.67
2017-07-24T10:12:46.654Z,20.50
2017-07-24T10:15:15.607Z,20.40
2017-07-24T10:17:44.587Z,19.83
2017-07-24T10:20:13.580Z,18.30
2017-07-24T10:22:42.553Z,18.03
2017-07-24T10:25:11.506Z,17.43
2017-07-24T10:27:40.483Z,19.00
2017-07-24T10:30:10.228Z,20.77
2017-07-24T10:32:39.293Z,55.43
2017-07-24T10:35:09.041Z,19.53
2017-07-24T10:37:38.004Z,17.73
2017-07-24T10:40:07.000Z,69.27
2017-07-24T10:42:35.970Z,20.93
2017-07-24T10:45:05.688Z,20.90
2017-07-24T10:47:34.674Z,19.90
2017-07-24T10:50:04.666Z,22.93
2017-07-24T10:52:33.632Z,46.87
2017-07-24T10:55:02.913Z,24.77
2017-07-24T10:57:31.911Z,28.00
2017-07-24T11:00:00.876Z,21.47
2017-07-24T11:02:29.834Z,19.50
2017-07-24T11:04:58.830Z,17.43
2017-07-24T11:07:27.879Z,18.30
2017-07-24T11:09:56.860Z,17.13
2017-07-24T11:12:25.836Z,16.23
2017-07-24T11:14:55.584Z,16.33
2017-07-24T11:17:24.546Z,17.67
2017-07-24T11:19:53.625Z,18.80
2017-07-24T11:22:22.600Z,19.90
2017-07-24T11:24:51.554Z,23.90
2017-07-24T11:27:20.549Z,21.30
2017-07-24T11:29:49.595Z,21.33
2017-07-24T11:32:19.412Z,14.50
2017-07-24T11:34:49.206Z,22.27
2017-07-24T11:37:18.289Z,21.90
2017-07-24T11:39:47.277Z,20.53
2017-07-24T11:42:16.338Z,22.30
2017-07-24T11:44:45.619Z,24.83
2017-07-24T11:47:14.644Z,24.67
2017-07-24T11:49:43.610Z,24.40
2017-07-24T11:52:12.620Z,22.50
2017-07-24T11:54:41.575Z,22.57
2017-07-24T11:57:11.320Z,24.67
2017-07-24T11:59:40.283Z,23.07
2017-07-24T12:02:09.282Z,24.83
2017-07-24T12:04:38.238Z,23.17
2017-07-24T12:07:07.267Z,15.93
2017-07-24T12:09:36.233Z,12.73
2017-07-24T12:12:05.192Z,12.37
2017-07-24T12:14:34.187Z,8.67
2017-07-24T12:17:03.136Z,7.57
2017-07-24T12:19:32.125Z,8.17
2017-07-24T12:22:01.085Z,8.33
2017-07-24T12:24:30.041Z,10.77
2017-07-24T12:26:59.081Z,8.23
2017-07-24T12:29:28.048Z,10.67
2017-07-24T12:31:57.070Z,8.80
2017-07-24T12:34:26.809Z,10.13
2017-07-24T12:36:55.762Z,9.30
2017-07-24T12:39:25.526Z,8.97
2017-07-24T12:41:54.766Z,9.60
2017-07-24T12:44:23.711Z,11.87
2017-07-24T12:46:52.716Z,12.30
2017-07-24T12:49:21.704Z,12.20
2017-07-24T12:51:50.868Z,10.53
2017-07-24T12:54:19.841Z,9.80
2017-07-24T12:56:48.814Z,13.23
2017-07-24T12:59:17.847Z,13.67
2017-07-24T13:01:46.818Z,15.20
2017-07-24T13:04:16.559Z,14.30
2017-07-24T13:06:45.570Z,16.60
2017-07-24T13:09:14.579Z,16.77
2017-07-24T13:11:43.609Z,14.60
2017-07-24T13:14:13.373Z,14.13
2017-07-24T13:16:42.770Z,16.30
2017-07-24T13:19:11.753Z,16.43
2017-07-24T13:21:40.742Z,18.73
2017-07-24T13:24:09.805Z,16.33
2017-07-24T13:26:39.550Z,16.43
2017-07-24T13:29:08.553Z,16.63
2017-07-24T13:31:37.501Z,16.63
2017-07-24T13:34:07.246Z,17.53
2017-07-24T13:36:36.272Z,15.80
2017-07-24T13:39:05.237Z,16.40
2017-07-24T13:41:34.224Z,14.70
2017-07-24T13:44:03.187Z,14.17
2017-07-24T13:46:32.264Z,17.20
2017-07-24T13:49:01.987Z,21.00
2017-07-24T13:51:30.998Z,16.93
2017-07-24T13:53:59.984Z,15.30
2017-07-24T13:56:28.957Z,14.53
2017-07-24T13:58:58.715Z,17.27
2017-07-24T14:01:27.688Z,17.90
2017-07-24T14:03:56.633Z,14.10
2017-07-24T14:06:25.758Z,16.30
2017-07-24T14:08:54.844Z,14.73
2017-07-24T14:11:24.595Z,13.60
2017-07-24T14:13:53.563Z,16.47
2017-07-24T14:16:22.618Z,16.73
2017-07-24T14:18:51.577Z,18.43
2017-07-24T14:21:20.615Z,17.90
2017-07-24T14:23:50.334Z,19.30
2017-07-24T14:26:19.350Z,19.83
2017-07-24T14:28:48.326Z,19.23
2017-07-24T14:31:17.315Z,21.20
2017-07-24T14:33:46.399Z,21.53
2017-07-24T14:36:16.152Z,18.23
2017-07-24T14:38:45.124Z,18.50
2017-07-24T14:41:14.201Z,20.47
2017-07-24T14:43:43.957Z,19.30
2017-07-24T14:46:12.949Z,17.70
2017-07-24T14:48:41.909Z,18.27
2017-07-24T14:51:10.892Z,19.33
2017-07-24T14:53:39.878Z,17.63
2017-07-24T14:56:09.609Z,18.17
2017-07-24T14:58:38.588Z,16.57
2017-07-24T15:01:07.582Z,13.40
2017-07-24T15:03:37.487Z,14.53
2017-07-24T15:06:06.801Z,14.00
2017-07-24T15:08:35.763Z,15.40
2017-07-24T15:11:04.715Z,16.80
2017-07-24T15:13:33.709Z,17.53
2017-07-24T15:16:02.678Z,18.23
2017-07-24T15:18:31.644Z,21.70
2017-07-24T15:21:00.863Z,18.80
2017-07-24T15:23:29.840Z,17.10
2017-07-24T15:25:58.817Z,19.03
2017-07-24T15:28:28.567Z,20.93
2017-07-24T15:30:57.536Z,18.70
2017-07-24T15:33:26.506Z,22.60
2017-07-24T15:35:56.253Z,20.87
2017-07-24T15:38:25.245Z,21.53
2017-07-24T15:40:54.230Z,22.20
2017-07-24T15:43:23.238Z,19.90
2017-07-24T15:45:52.190Z,21.93
2017-07-24T15:48:22.145Z,23.50
2017-07-24T15:50:51.097Z,24.10
2017-07-24T15:53:20.876Z,23.53
2017-07-24T15:55:49.934Z,25.00
2017-07-24T15:58:18.939Z,24.53
2017-07-24T16:00:47.893Z,23.23
2017-07-24T16:03:17.719Z,24.63
2017-07-24T16:05:46.672Z,22.93
2017-07-24T16:08:15.644Z,24.37
2017-07-24T16:10:46.257Z,26.60
2017-07-24T16:13:15.365Z,26.00
2017-07-24T16:15:44.367Z,32.88
2017-07-24T16:18:13.344Z,25.63
2017-07-24T16:20:42.353Z,23.30
2017-07-24T16:23:11.443Z,30.43
2017-07-24T16:25:40.402Z,26.37
2017-07-24T16:28:09.375Z,24.80
2017-07-24T16:30:38.359Z,25.17
2017-07-24T16:33:08.106Z,23.50
2017-07-24T16:35:37.065Z,23.90
2017-07-24T16:38:06.813Z,23.83
2017-07-24T16:40:35.964Z,23.90
2017-07-24T16:43:04.945Z,26.83
2017-07-24T16:45:33.954Z,26.37
2017-07-24T16:48:03.688Z,23.73
2017-07-24T16:50:32.648Z,22.40
2017-07-24T16:53:02.521Z,25.83
2017-07-24T16:55:31.490Z,28.40
2017-07-24T16:58:00.463Z,26.73
2017-07-24T17:00:29.480Z,24.73
2017-07-24T17:02:58.423Z,26.30
2017-07-24T17:05:28.173Z,25.80
2017-07-24T17:07:57.156Z,25.07
2017-07-24T17:10:26.112Z,28.83
2017-07-24T17:12:55.154Z,22.77
2017-07-24T17:15:24.137Z,23.00
2017-07-24T17:17:53.151Z,22.20
2017-07-24T17:20:22.120Z,23.03
2017-07-24T17:22:51.073Z,24.07
2017-07-24T17:25:20.089Z,22.67
2017-07-24T17:27:49.801Z,20.50
2017-07-24T17:30:18.797Z,25.10
2017-07-24T17:32:53.044Z,25.67
2017-07-24T17:35:23.069Z,23.13
2017-07-24T17:37:52.112Z,22.37
2017-07-24T17:40:21.836Z,21.07
2017-07-24T17:42:50.804Z,23.00
2017-07-24T17:45:19.796Z,25.50
2017-07-24T17:47:49.529Z,26.83
2017-07-24T17:50:18.534Z,25.00
2017-07-24T17:52:47.601Z,28.17
2017-07-24T17:55:17.361Z,23.70
2017-07-24T17:57:46.331Z,26.20
2017-07-24T18:00:15.297Z,25.67
2017-07-24T18:02:45.051Z,25.77
2017-07-24T18:05:14.173Z,25.17
2017-07-24T18:07:43.196Z,25.97
2017-07-24T18:10:12.919Z,25.70
2017-07-24T18:12:41.883Z,25.13
2017-07-24T18:15:11.006Z,24.37
2017-07-24T18:17:39.967Z,23.67
2017-07-24T18:20:08.943Z,21.33
2017-07-24T18:22:37.913Z,24.20
2017-07-24T18:25:06.888Z,26.60
2017-07-24T18:27:35.881Z,24.60
2017-07-24T18:30:04.843Z,23.47
2017-07-24T18:32:34.657Z,24.03
2017-07-24T18:35:04.465Z,24.97
2017-07-24T18:37:34.234Z,23.60
2017-07-24T18:40:03.216Z,22.23
2017-07-24T18:42:33.082Z,23.93
2017-07-24T18:45:02.851Z,24.37
2017-07-24T18:47:31.832Z,23.17
2017-07-24T18:50:00.834Z,23.13
2017-07-24T18:52:30.221Z,24.37
2017-07-24T18:54:59.199Z,24.73
2017-07-24T18:57:28.148Z,24.00
2017-07-24T18:59:57.147Z,25.07
2017-07-24T19:02:26.906Z,25.03
2017-07-24T19:04:55.904Z,24.80
2017-07-24T19:07:24.901Z,25.40
2017-07-24T19:09:53.887Z,27.80
2017-07-24T19:12:23.180Z,26.40
2017-07-24T19:14:52.147Z,29.20
2017-07-24T19:17:21.217Z,32.70
2017-07-24T19:19:50.185Z,29.87
2017-07-24T19:22:19.173Z,29.60
2017-07-24T19:24:48.174Z,31.27
2017-07-24T19:27:17.213Z,28.20
2017-07-24T19:29:46.548Z,30.77
2017-07-24T19:32:15.545Z,30.10
2017-07-24T19:34:44.559Z,28.87
2017-07-24T19:37:13.560Z,31.63
2017-07-24T19:39:42.550Z,30.07
2017-07-24T19:42:11.555Z,35.93
2017-07-24T19:44:40.969Z,33.43
2017-07-24T19:47:10.694Z,29.90
2017-07-24T19:49:39.710Z,29.37
2017-07-24T19:52:09.750Z,35.70
2017-07-24T19:54:41.224Z,55.77
2017-07-24T19:57:11.942Z,59.87
2017-07-24T19:59:40.925Z,38.00
2017-07-24T20:02:09.906Z,33.97
2017-07-24T20:04:38.915Z,29.43
2017-07-24T20:07:07.875Z,33.90
2017-07-24T20:09:37.926Z,31.13
2017-07-24T20:12:07.014Z,32.93
2017-07-24T20:14:36.028Z,32.70
2017-07-24T20:17:05.745Z,35.90
2017-07-24T20:19:35.513Z,45.23
2017-07-24T20:22:04.471Z,34.33
2017-07-24T20:24:33.485Z,42.23
2017-07-24T20:27:02.455Z,37.27
2017-07-24T20:29:31.409Z,33.23
2017-07-24T20:32:01.177Z,31.40
2017-07-24T20:34:30.143Z,33.93
2017-07-24T20:36:59.113Z,32.40
2017-07-24T20:39:28.881Z,34.60
2017-07-24T20:41:57.851Z,34.93
2017-07-24T20:44:26.826Z,36.17
2017-07-24T20:46:55.771Z,30.37
2017-07-24T20:49:24.770Z,35.63
2017-07-24T20:51:53.784Z,60.60
2017-07-24T20:54:23.533Z,30.00
2017-07-24T20:56:52.982Z,32.67
2017-07-24T20:59:21.990Z,33.13
2017-07-24T21:04:26.624Z,31.07
2017-07-24T21:06:56.076Z,27.93
2017-07-24T21:09:25.023Z,36.37
2017-07-24T21:11:54.455Z,34.50
2017-07-24T21:14:23.398Z,31.03
2017-07-24T21:16:52.362Z,36.43
2017-07-24T21:19:21.772Z,39.17
2017-07-24T21:21:50.750Z,34.50
2017-07-24T21:24:20.469Z,36.50
2017-07-24T21:26:49.454Z,35.27
2017-07-24T21:29:18.435Z,47.40
2017-07-24T21:31:47.425Z,35.17
2017-07-24T21:34:16.388Z,31.70
2017-07-24T21:36:45.374Z,32.13
2017-07-24T21:39:14.341Z,32.13
2017-07-24T21:41:43.357Z,30.93
2017-07-24T21:44:12.329Z,36.93
2017-07-24T21:46:41.345Z,32.40
2017-07-24T21:49:10.504Z,38.03
2017-07-24T21:51:40.416Z,38.77
2017-07-24T21:54:09.369Z,33.03
2017-07-24T21:56:38.327Z,35.83
2017-07-24T21:59:08.090Z,48.27
2017-07-24T22:01:37.085Z,38.70
2017-07-24T22:04:06.080Z,56.33
2017-07-24T22:06:35.068Z,42.17
2017-07-24T22:09:04.058Z,38.10
2017-07-24T22:11:33.304Z,45.40
2017-07-24T22:14:02.268Z,54.63
2017-07-24T22:16:31.235Z,59.37
2017-07-24T22:19:00.217Z,35.47
2017-07-24T22:21:29.264Z,36.60
2017-07-24T22:23:58.991Z,37.40
2017-07-24T22:26:27.990Z,30.87
2017-07-24T22:28:57.114Z,37.90
2017-07-24T22:31:26.100Z,34.50
2017-07-24T22:33:55.498Z,35.63
2017-07-24T22:36:24.468Z,35.83
2017-07-24T22:38:53.431Z,31.50
2017-07-24T22:41:23.210Z,29.57
2017-07-24T22:43:52.168Z,31.30
2017-07-24T22:46:21.140Z,52.83
2017-07-24T22:48:51.756Z,28.73
2017-07-24T22:51:20.719Z,40.67
2017-07-24T22:53:49.720Z,32.30
2017-07-24T22:56:18.674Z,33.90
2017-07-24T22:58:47.749Z,30.10
2017-07-24T23:01:17.477Z,31.20
2017-07-24T23:03:46.452Z,77.80
2017-07-24T23:06:16.181Z,41.83
2017-07-24T23:08:45.276Z,34.70
2017-07-24T23:11:14.320Z,25.27
2017-07-24T23:13:43.308Z,40.37
2017-07-24T23:16:13.813Z,25.97
2017-07-24T23:18:42.987Z,16.13
2017-07-24T23:21:11.956Z,15.33
2017-07-24T23:23:41.687Z,13.80
2017-07-24T23:26:10.651Z,11.37
2017-07-24T23:28:40.385Z,13.23
2017-07-24T23:31:10.740Z,9.93
2017-07-24T23:33:39.705Z,9.03
2017-07-24T23:36:08.661Z,10.53
2017-07-24T23:38:37.666Z,12.03
2017-07-24T23:41:07.380Z,11.47
2017-07-24T23:43:36.473Z,24.67
2017-07-24T23:46:06.219Z,12.90
2017-07-24T23:48:35.207Z,12.17
2017-07-24T23:51:04.173Z,12.67
2017-07-24T23:53:33.918Z,13.13
2017-07-24T23:56:02.892Z,13.50
2017-07-24T23:58:31.848Z,9.70
